createdAt,value
2023-02-19T00:01:12.583Z,8.50
2023-02-19T00:04:24.725Z,8.50
2023-02-19T00:07:26.539Z,8.50
2023-02-19T00:10:28.245Z,8.50
2023-02-19T00:13:30.439Z,8.50
2023-02-19T00:16:37.529Z,8.50
2023-02-19T00:19:39.289Z,8.50
2023-02-19T00:22:41.131Z,8.50
2023-02-19T00:25:42.889Z,8.50
2023-02-19T00:28:45.058Z,8.50
2023-02-19T00:31:47.844Z,8.40
2023-02-19T00:34:49.546Z,8.40
2023-02-19T00:37:51.273Z,8.40
2023-02-19T00:40:53.088Z,8.40
2023-02-19T00:43:57.075Z,8.40
2023-02-19T00:46:58.826Z,8.40
2023-02-19T00:50:00.592Z,8.30
2023-02-19T00:53:02.448Z,8.40
2023-02-19T00:56:04.588Z,8.30
2023-02-19T00:59:06.360Z,8.30
2023-02-19T01:02:08.292Z,8.30
2023-02-19T01:05:10.065Z,8.30
2023-02-19T01:08:11.827Z,8.30
2023-02-19T01:11:14.250Z,8.30
2023-02-19T01:14:15.974Z,8.30
2023-02-19T01:17:17.678Z,8.30
2023-02-19T01:20:19.470Z,8.30
2023-02-19T01:23:21.209Z,8.30
2023-02-19T01:26:25.617Z,8.30
2023-02-19T01:29:27.416Z,8.30
2023-02-19T01:32:29.116Z,8.30
2023-02-19T01:35:30.871Z,8.30
2023-02-19T01:38:32.732Z,8.30
2023-02-19T01:41:38.888Z,8.30
2023-02-19T01:44:40.523Z,8.30
2023-02-19T01:47:42.313Z,8.40
2023-02-19T01:51:03.656Z,8.40
2023-02-19T01:54:08.588Z,8.40
2023-02-19T01:57:16.079Z,8.40
2023-02-19T02:00:18.193Z,8.40
2023-02-19T02:03:20.915Z,8.40
2023-02-19T02:06:36.599Z,8.40
2023-02-19T02:09:56.888Z,8.50
2023-02-19T02:12:58.883Z,8.50
2023-02-19T02:16:19.379Z,8.50
2023-02-19T02:19:47.002Z,8.50
2023-02-19T02:22:57.751Z,8.50
2023-02-19T02:26:32.893Z,8.50
2023-02-19T02:30:04.572Z,8.50
2023-02-19T02:33:25.201Z,8.60
2023-02-19T02:36:40.604Z,8.50
2023-02-19T02:39:44.019Z,8.50
2023-02-19T02:42:45.973Z,8.50
2023-02-19T02:45:47.923Z,8.50
2023-02-19T02:48:54.089Z,8.50
2023-02-19T02:51:58.270Z,8.50
2023-02-19T02:55:03.169Z,8.50
2023-02-19T02:58:06.042Z,8.60
2023-02-19T03:01:36.826Z,8.60
2023-02-19T03:05:22.937Z,8.60
2023-02-19T03:08:34.632Z,8.60
2023-02-19T03:11:58.617Z,8.50
2023-02-19T03:15:23.936Z,8.60
2023-02-19T03:18:49.367Z,8.60
2023-02-19T03:22:02.070Z,8.50
2023-02-19T03:25:30.978Z,8.60
2023-02-19T03:28:56.483Z,8.60
2023-02-19T03:32:20.929Z,8.50
2023-02-19T03:35:26.963Z,8.40
2023-02-19T03:38:40.838Z,8.50
2023-02-19T03:42:12.758Z,8.50
2023-02-19T03:45:20.802Z,8.50
2023-02-19T03:48:30.018Z,8.50
2023-02-19T03:51:45.849Z,8.50
2023-02-19T03:55:06.270Z,8.50
2023-02-19T03:58:10.198Z,8.50
2023-02-19T04:01:36.132Z,8.50
2023-02-19T04:04:44.204Z,8.50
2023-02-19T04:07:49.885Z,8.50
2023-02-19T04:10:53.697Z,8.50
2023-02-19T04:13:58.284Z,8.50
2023-02-19T04:17:04.789Z,8.50
2023-02-19T04:20:09.995Z,8.50
2023-02-19T04:23:13.949Z,8.50
2023-02-19T04:26:17.879Z,8.60
2023-02-19T04:29:19.611Z,8.50
2023-02-19T04:32:21.422Z,8.60
2023-02-19T04:35:23.130Z,8.60
2023-02-19T04:38:24.887Z,8.50
2023-02-19T04:41:26.762Z,8.60
2023-02-19T04:44:28.661Z,8.60
2023-02-19T04:47:32.260Z,8.60
2023-02-19T04:50:34.065Z,8.50
2023-02-19T04:53:36.878Z,8.50
2023-02-19T04:56:39.793Z,8.50
2023-02-19T04:59:41.612Z,8.50
2023-02-19T05:02:43.410Z,8.40
2023-02-19T05:05:45.227Z,8.50
2023-02-19T05:08:47.012Z,8.50
2023-02-19T05:11:48.778Z,8.40
2023-02-19T05:14:50.946Z,8.40
2023-02-19T05:17:52.713Z,8.40
2023-02-19T05:20:54.591Z,8.40
2023-02-19T05:23:56.383Z,8.30
2023-02-19T05:26:58.168Z,8.30
2023-02-19T05:29:59.982Z,8.30
2023-02-19T05:33:01.756Z,8.30
2023-02-19T05:36:09.225Z,8.30
2023-02-19T05:39:12.392Z,8.30
2023-02-19T05:42:15.487Z,8.40
2023-02-19T05:45:17.215Z,8.40
2023-02-19T05:48:19.138Z,8.40
2023-02-19T05:51:23.613Z,8.40
2023-02-19T05:54:28.075Z,8.40
2023-02-19T05:57:29.957Z,8.40
2023-02-19T06:00:33.718Z,8.40
2023-02-19T06:03:35.505Z,8.50
2023-02-19T06:06:37.384Z,8.40
2023-02-19T06:09:39.155Z,8.40
2023-02-19T06:12:40.960Z,8.40
2023-02-19T06:15:42.756Z,8.40
2023-02-19T06:18:45.575Z,8.40
2023-02-19T06:21:50.354Z,8.40
2023-02-19T06:24:52.157Z,8.40
2023-02-19T06:27:53.946Z,8.40
2023-02-19T06:30:55.711Z,8.30
2023-02-19T06:33:57.746Z,8.40
2023-02-19T06:37:00.087Z,8.30
2023-02-19T06:40:01.806Z,8.30
2023-02-19T06:43:03.573Z,8.30
2023-02-19T06:46:07.031Z,8.30
2023-02-19T06:49:09.105Z,8.20
2023-02-19T06:52:10.919Z,8.20
2023-02-19T06:55:12.638Z,8.20
2023-02-19T06:58:14.445Z,8.20
2023-02-19T07:01:16.292Z,8.20
2023-02-19T07:04:18.151Z,8.20
2023-02-19T07:07:19.906Z,8.20
2023-02-19T07:10:21.703Z,8.20
2023-02-19T07:13:24.942Z,8.20
2023-02-19T07:16:27.455Z,8.20
2023-02-19T07:19:29.277Z,8.20
2023-02-19T07:22:31.021Z,8.20
2023-02-19T07:25:32.829Z,8.20
2023-02-19T07:28:34.617Z,8.30
2023-02-19T07:31:36.448Z,8.30
2023-02-19T07:34:38.312Z,8.30
2023-02-19T07:37:41.584Z,8.30
2023-02-19T07:40:50.563Z,8.40
2023-02-19T07:43:53.424Z,8.40
2023-02-19T07:46:55.148Z,8.50
2023-02-19T07:49:56.956Z,8.50
2023-02-19T07:52:58.760Z,8.50
2023-02-19T07:56:02.311Z,8.50
2023-02-19T07:59:04.808Z,8.60
2023-02-19T08:02:38.823Z,8.50
2023-02-19T08:05:42.483Z,8.50
2023-02-19T08:08:44.282Z,8.60
2023-02-19T08:12:04.813Z,8.60
2023-02-19T08:15:06.844Z,8.60
2023-02-19T08:18:09.439Z,8.70
2023-02-19T08:21:11.878Z,8.70
2023-02-19T08:24:13.912Z,8.70
2023-02-19T08:27:15.653Z,8.70
2023-02-19T08:30:17.529Z,8.70
2023-02-19T08:33:21.203Z,8.80
2023-02-19T08:36:22.953Z,8.80
2023-02-19T08:39:24.801Z,8.80
2023-02-19T08:42:27.982Z,8.80
2023-02-19T08:45:30.190Z,8.80
2023-02-19T08:48:31.971Z,8.90
2023-02-19T08:51:33.780Z,8.90
2023-02-19T08:54:37.272Z,9.00
2023-02-19T08:57:39.328Z,9.00
2023-02-19T09:00:41.167Z,9.10
2023-02-19T09:03:43.387Z,9.20
2023-02-19T09:06:45.282Z,9.20
2023-02-19T09:09:47.285Z,9.30
2023-02-19T09:12:49.106Z,9.40
2023-02-19T09:15:50.866Z,9.40
2023-02-19T09:18:52.685Z,9.40
2023-02-19T09:21:55.315Z,9.40
2023-02-19T09:24:57.062Z,9.40
2023-02-19T09:27:58.852Z,9.40
2023-02-19T09:31:08.977Z,9.40
2023-02-19T09:34:11.822Z,9.30
2023-02-19T09:37:13.614Z,9.30
2023-02-19T09:40:21.450Z,9.20
2023-02-19T09:43:27.818Z,9.20
2023-02-19T09:46:32.257Z,9.20
2023-02-19T09:49:37.154Z,9.10
2023-02-19T09:52:47.429Z,9.20
2023-02-19T09:55:49.541Z,9.10
2023-02-19T09:58:54.424Z,9.20
2023-02-19T10:02:04.300Z,9.20
2023-02-19T10:05:14.522Z,9.20
2023-02-19T10:08:21.311Z,9.30
2023-02-19T10:11:25.817Z,9.30
2023-02-19T10:14:42.108Z,9.40
2023-02-19T10:17:43.839Z,9.40
2023-02-19T10:20:47.159Z,9.50
2023-02-19T10:23:56.433Z,9.50
2023-02-19T10:26:58.279Z,9.60
2023-02-19T10:30:02.081Z,9.60
2023-02-19T10:33:13.131Z,9.70
2023-02-19T10:36:33.497Z,9.80
2023-02-19T10:39:49.884Z,9.70
2023-02-19T10:42:56.262Z,9.80
2023-02-19T10:46:01.138Z,9.70
2023-02-19T10:49:46.382Z,9.70
2023-02-19T10:52:53.540Z,9.60
2023-02-19T10:56:11.929Z,9.50
2023-02-19T10:59:26.904Z,9.40
2023-02-19T11:02:30.244Z,9.30
2023-02-19T11:05:32.062Z,9.20
2023-02-19T11:08:59.676Z,9.20
2023-02-19T11:12:04.276Z,9.10
2023-02-19T11:15:32.622Z,9.10
2023-02-19T11:18:37.903Z,9.00
2023-02-19T11:21:39.685Z,9.00
2023-02-19T11:24:41.427Z,9.00
2023-02-19T11:28:31.717Z,9.10
2023-02-19T11:31:36.121Z,9.10
2023-02-19T11:34:37.927Z,9.20
2023-02-19T11:37:55.343Z,9.10
2023-02-19T11:41:26.990Z,9.20
2023-02-19T11:44:34.580Z,9.10
2023-02-19T11:47:39.523Z,9.10
2023-02-19T11:50:54.196Z,9.10
2023-02-19T11:54:10.578Z,9.10
2023-02-19T11:57:30.429Z,9.10
2023-02-19T12:00:40.864Z,9.10
2023-02-19T12:03:48.143Z,9.10
2023-02-19T12:07:12.093Z,9.10
2023-02-19T12:10:18.556Z,9.20
2023-02-19T12:14:02.146Z,9.20
2023-02-19T12:17:13.515Z,9.10
2023-02-19T12:20:22.572Z,9.10
2023-02-19T12:24:00.904Z,9.10
2023-02-19T12:27:52.279Z,9.10
2023-02-19T12:30:54.197Z,9.20
2023-02-19T12:34:29.005Z,9.20
2023-02-19T12:37:40.091Z,9.30
2023-02-19T12:40:45.129Z,9.30
2023-02-19T12:44:16.834Z,9.30
2023-02-19T12:47:26.375Z,9.40
2023-02-19T12:50:30.664Z,9.40
2023-02-19T12:54:01.473Z,9.50
2023-02-19T12:57:10.451Z,9.50
2023-02-19T13:00:39.457Z,9.50
2023-02-19T13:03:49.343Z,9.50
2023-02-19T13:06:57.594Z,9.50
2023-02-19T13:10:04.204Z,9.50
2023-02-19T13:13:10.266Z,9.60
2023-02-19T13:16:18.559Z,9.60
2023-02-19T13:19:20.360Z,9.70
2023-02-19T13:22:48.729Z,9.70
2023-02-19T13:26:01.532Z,9.70
2023-02-19T13:29:37.262Z,9.70
2023-02-19T13:32:51.148Z,9.80
2023-02-19T13:36:13.323Z,9.70
2023-02-19T13:39:17.308Z,9.70
2023-02-19T13:42:33.041Z,9.80
2023-02-19T13:45:39.618Z,9.70
2023-02-19T13:48:44.399Z,9.70
2023-02-19T13:51:51.099Z,9.70
2023-02-19T13:54:52.885Z,9.70
2023-02-19T13:57:54.913Z,9.60
2023-02-19T14:00:56.838Z,9.60
2023-02-19T14:04:20.587Z,9.60
2023-02-19T14:07:36.181Z,9.50
2023-02-19T14:10:54.413Z,9.50
2023-02-19T14:13:58.052Z,9.40
2023-02-19T14:17:09.120Z,9.40
2023-02-19T14:20:17.159Z,9.30
2023-02-19T14:23:24.234Z,9.20
2023-02-19T14:26:27.972Z,9.20
2023-02-19T14:29:29.949Z,9.10
2023-02-19T14:32:31.779Z,9.10
2023-02-19T14:35:41.300Z,9.00
2023-02-19T14:39:05.781Z,9.00
2023-02-19T14:42:17.744Z,8.90
2023-02-19T14:45:21.203Z,8.80
2023-02-19T14:48:38.231Z,8.80
2023-02-19T14:51:44.209Z,8.80
2023-02-19T14:54:56.590Z,8.80
2023-02-19T14:58:01.808Z,8.80
2023-02-19T15:01:05.485Z,8.80
2023-02-19T15:04:19.623Z,8.70
2023-02-19T15:07:29.714Z,8.70
2023-02-19T15:10:33.393Z,8.70
2023-02-19T15:13:35.603Z,8.60
2023-02-19T15:16:37.791Z,8.60
2023-02-19T15:19:40.271Z,8.60
2023-02-19T15:22:42.344Z,8.50
2023-02-19T15:25:44.126Z,8.50
2023-02-19T15:28:45.897Z,8.60
2023-02-19T15:31:58.919Z,8.50
2023-02-19T15:35:05.200Z,8.50
2023-02-19T15:38:12.798Z,8.50
2023-02-19T15:41:23.014Z,8.50
2023-02-19T15:44:33.809Z,8.50
2023-02-19T15:47:53.897Z,8.50
2023-02-19T15:51:08.199Z,8.50
2023-02-19T15:54:27.656Z,8.50
2023-02-19T15:57:36.606Z,8.50
2023-02-19T16:00:53.072Z,8.40
2023-02-19T16:03:55.493Z,8.40
2023-02-19T16:07:02.477Z,8.30
2023-02-19T16:10:24.087Z,8.30
2023-02-19T16:13:27.980Z,8.30
2023-02-19T16:16:36.160Z,8.30
2023-02-19T16:19:44.190Z,8.20
2023-02-19T16:22:46.346Z,8.20
2023-02-19T16:25:48.430Z,8.20
2023-02-19T16:28:54.729Z,8.10
2023-02-19T16:32:02.903Z,8.10
2023-02-19T16:35:05.907Z,8.00
2023-02-19T16:38:16.202Z,8.00
2023-02-19T16:41:17.947Z,8.00
2023-02-19T16:44:27.364Z,8.00
2023-02-19T16:47:34.901Z,8.00
2023-02-19T16:50:36.952Z,8.00
2023-02-19T16:53:38.902Z,7.90
2023-02-19T16:56:40.790Z,7.90
2023-02-19T16:59:42.566Z,7.90
2023-02-19T17:02:50.960Z,7.90
2023-02-19T17:05:53.207Z,7.90
2023-02-19T17:08:54.915Z,7.90
2023-02-19T17:11:56.685Z,7.80
2023-02-19T17:14:58.406Z,7.80
2023-02-19T17:18:00.250Z,7.80
2023-02-19T17:21:12.297Z,7.80
2023-02-19T17:24:14.692Z,7.80
2023-02-19T17:27:16.453Z,7.80
2023-02-19T17:30:25.595Z,7.80
2023-02-19T17:33:27.397Z,7.80
2023-02-19T17:36:31.534Z,7.80
2023-02-19T17:39:33.237Z,7.70
2023-02-19T17:42:34.931Z,7.70
2023-02-19T17:45:36.667Z,7.70
2023-02-19T17:48:38.387Z,7.70
2023-02-19T17:51:40.122Z,7.70
2023-02-19T17:54:42.995Z,7.70
2023-02-19T17:57:49.495Z,7.70
2023-02-19T18:00:51.497Z,7.70
2023-02-19T18:03:53.249Z,7.60
2023-02-19T18:06:55.874Z,7.60
2023-02-19T18:09:57.603Z,7.60
2023-02-19T18:12:59.433Z,7.60
2023-02-19T18:16:01.173Z,7.60
2023-02-19T18:19:02.954Z,7.60
2023-02-19T18:22:06.516Z,7.60
2023-02-19T18:25:10.377Z,7.50
2023-02-19T18:28:12.136Z,7.50
2023-02-19T18:31:14.298Z,7.50
2023-02-19T18:34:18.807Z,7.40
2023-02-19T18:37:21.879Z,7.40
2023-02-19T18:40:28.437Z,7.40
2023-02-19T18:43:30.258Z,7.40
2023-02-19T18:46:32.440Z,7.40
2023-02-19T18:49:34.227Z,7.40
2023-02-19T18:52:35.992Z,7.40
2023-02-19T18:55:37.758Z,7.40
2023-02-19T18:58:39.556Z,7.40
2023-02-19T19:01:41.517Z,7.40
2023-02-19T19:04:43.448Z,7.40
2023-02-19T19:07:45.239Z,7.40
2023-02-19T19:10:46.987Z,7.40
2023-02-19T19:13:48.856Z,7.40
2023-02-19T19:16:50.684Z,7.40
2023-02-19T19:19:52.450Z,7.40
2023-02-19T19:22:54.593Z,7.40
2023-02-19T19:25:56.430Z,7.40
2023-02-19T19:28:58.238Z,7.40
2023-02-19T19:32:00.088Z,7.40
2023-02-19T19:35:01.935Z,7.40
2023-02-19T19:38:03.813Z,7.40
2023-02-19T19:41:05.916Z,7.40
2023-02-19T19:44:08.839Z,7.40
2023-02-19T19:47:10.642Z,7.40
2023-02-19T19:50:14.478Z,7.50
2023-02-19T19:53:16.735Z,7.40
2023-02-19T19:56:19.093Z,7.40
2023-02-19T19:59:21.596Z,7.40
2023-02-19T20:02:23.834Z,7.30
2023-02-19T20:05:25.678Z,7.30
2023-02-19T20:08:27.426Z,7.30
2023-02-19T20:11:29.218Z,7.30
2023-02-19T20:14:31.122Z,7.30
2023-02-19T20:17:32.992Z,7.30
2023-02-19T20:20:34.683Z,7.30
2023-02-19T20:23:39.204Z,7.40
2023-02-19T20:26:40.961Z,7.40
2023-02-19T20:29:44.593Z,7.40
2023-02-19T20:32:46.551Z,7.40
2023-02-19T20:35:48.536Z,7.30
2023-02-19T20:38:50.418Z,7.30
2023-02-19T20:41:52.284Z,7.30
2023-02-19T20:44:53.995Z,7.30
2023-02-19T20:47:55.838Z,7.30
2023-02-19T20:51:00.012Z,7.30
2023-02-19T20:54:01.811Z,7.30
2023-02-19T20:57:05.503Z,7.30
2023-02-19T21:00:08.808Z,7.30
2023-02-19T21:03:11.714Z,7.30
2023-02-19T21:06:13.756Z,7.30
2023-02-19T21:09:15.598Z,7.30
2023-02-19T21:12:17.572Z,7.30
2023-02-19T21:15:20.114Z,7.30
2023-02-19T21:18:21.892Z,7.30
2023-02-19T21:21:26.177Z,7.30
2023-02-19T21:24:27.999Z,7.40
2023-02-19T21:27:29.727Z,7.30
2023-02-19T21:30:31.498Z,7.30
2023-02-19T21:33:33.348Z,7.30
2023-02-19T21:36:35.937Z,7.30
2023-02-19T21:39:38.840Z,7.30
2023-02-19T21:42:40.641Z,7.30
2023-02-19T21:45:43.056Z,7.30
2023-02-19T21:48:48.527Z,7.20
2023-02-19T21:51:50.414Z,7.30
2023-02-19T21:54:52.531Z,7.30
2023-02-19T21:57:54.738Z,7.20
2023-02-19T22:00:58.085Z,7.20
2023-02-19T22:04:00.270Z,7.20
2023-02-19T22:07:01.981Z,7.20
2023-02-19T22:10:04.422Z,7.20
2023-02-19T22:13:06.155Z,7.20
2023-02-19T22:16:08.246Z,7.20
2023-02-19T22:19:12.099Z,7.20
2023-02-19T22:22:15.124Z,7.20
2023-02-19T22:25:17.251Z,7.10
2023-02-19T22:28:19.130Z,7.10
2023-02-19T22:31:23.980Z,7.10
2023-02-19T22:34:25.841Z,7.10
2023-02-19T22:37:29.652Z,7.10
2023-02-19T22:40:31.421Z,7.00
2023-02-19T22:43:33.435Z,7.10
2023-02-19T22:46:35.272Z,7.00
2023-02-19T22:49:40.667Z,7.10
2023-02-19T22:52:43.579Z,7.10
2023-02-19T22:55:45.520Z,7.10
2023-02-19T22:58:47.256Z,7.10
2023-02-19T23:01:50.080Z,7.10
2023-02-19T23:04:51.791Z,7.10
2023-02-19T23:07:54.758Z,7.10
2023-02-19T23:10:56.609Z,7.10
2023-02-19T23:13:59.069Z,7.10
2023-02-19T23:17:01.097Z,7.10
2023-02-19T23:20:03.211Z,7.00
2023-02-19T23:23:05.120Z,7.00
2023-02-19T23:26:06.862Z,7.00
2023-02-19T23:29:08.624Z,7.00
2023-02-19T23:32:10.617Z,7.00
2023-02-19T23:35:12.504Z,7.00
2023-02-19T23:38:14.347Z,6.90
2023-02-19T23:41:17.865Z,7.00
2023-02-19T23:44:21.106Z,6.90
2023-02-19T23:47:22.884Z,6.90
2023-02-19T23:50:24.712Z,6.90
2023-02-19T23:53:26.642Z,6.90
2023-02-19T23:56:29.319Z,7.00
2023-02-19T23:59:31.057Z,6.90
